Time;durP1;ratioP1;P1;durP2;ratioP2;P2;SDS_P1;SDS_P2;PMS_P1;PMS_P2;Temp;Humidity;BMP_temperature;BMP_pressure;BME280_temperature;BME280_humidity;BME280_pressure;Samples;Min_cycle;Max_cycle;Signal;HPM_P1;HPM_P2
2021/10/14 00:01:26;;;;;;;12.00;8.15;;;;;;;10.69;100.00;102559.56;5235321;28;20025;-70
2021/10/14 00:03:57;;;;;;;16.67;8.20;;;;;;;10.71;100.00;102564.69;5236083;28;20021;-70
2021/10/14 00:06:28;;;;;;;14.13;9.00;;;;;;;10.69;100.00;102559.56;5236465;28;20030;-70
2021/10/14 00:09:00;;;;;;;15.77;9.13;;;;;;;10.67;100.00;102565.81;5236069;28;20576;-70
2021/10/14 00:11:31;;;;;;;15.13;8.95;;;;;;;10.68;100.00;102557.00;5234585;28;20092;-70
2021/10/14 00:14:02;;;;;;;14.30;8.98;;;;;;;10.67;100.00;102561.41;5236304;28;20120;-70
2021/10/14 00:16:34;;;;;;;14.00;10.27;;;;;;;10.64;100.00;102553.72;5237178;28;20391;-70
2021/10/14 00:19:05;;;;;;;20.13;9.88;;;;;;;10.62;100.00;102547.72;5235363;28;20347;-70
2021/10/14 00:21:36;;;;;;;13.05;9.82;;;;;;;10.68;100.00;102557.88;5234084;28;20037;-70
2021/10/14 00:24:08;;;;;;;17.83;11.20;;;;;;;10.69;100.00;102549.06;5236437;28;20020;-70
2021/10/14 00:26:39;;;;;;;17.80;12.52;;;;;;;10.66;100.00;102546.63;5241720;28;20037;-70
2021/10/14 00:29:11;;;;;;;16.83;12.40;;;;;;;10.61;100.00;102540.81;5241829;28;20029;-70
2021/10/14 00:31:42;;;;;;;15.18;11.95;;;;;;;10.64;100.00;102545.00;5241755;28;20364;-70
2021/10/14 00:34:13;;;;;;;16.25;12.80;;;;;;;10.62;100.00;102539.03;5242612;28;20483;-70
2021/10/14 00:36:45;;;;;;;15.77;13.73;;;;;;;10.63;100.00;102532.84;5239240;28;20545;-70
2021/10/14 00:39:16;;;;;;;20.52;13.93;;;;;;;10.63;100.00;102538.09;5242707;28;20471;-70
2021/10/14 00:41:47;;;;;;;18.30;14.15;;;;;;;10.63;100.00;102530.22;5240394;28;20534;-70
2021/10/14 00:44:19;;;;;;;17.35;14.43;;;;;;;10.60;100.00;102527.78;5241456;28;20017;-70
2021/10/14 00:46:54;;;;;;;18.42;13.48;;;;;;;10.64;100.00;102531.91;5241425;28;20056;-70
2021/10/14 00:49:26;;;;;;;17.60;14.07;;;;;;;10.63;100.00;102527.59;5240809;28;20076;-70
2021/10/14 00:51:57;;;;;;;18.65;15.25;;;;;;;10.63;100.00;102522.34;5240364;28;20045;-70
2021/10/14 00:54:29;;;;;;;19.90;15.25;;;;;;;10.61;100.00;102516.38;5238361;28;20029;-70
2021/10/14 00:57:00;;;;;;;23.40;15.90;;;;;;;10.56;100.00;102513.16;5241246;28;20031;-70
2021/10/14 00:59:33;;;;;;;24.30;15.82;;;;;;;10.56;100.00;102505.28;5241816;28;20087;-70
2021/10/14 01:02:05;;;;;;;22.50;16.23;;;;;;;10.54;100.00;102500.16;5232961;28;20503;-70
2021/10/14 01:04:37;;;;;;;23.73;16.90;;;;;;;10.55;100.00;102504.47;5240118;28;20048;-70
2021/10/14 01:07:09;;;;;;;28.95;17.40;;;;;;;10.55;100.00;102495.75;5238866;28;20077;-70
2021/10/14 01:09:40;;;;;;;21.25;16.98;;;;;;;10.53;100.00;102493.25;5238546;28;20045;-69
2021/10/14 01:12:13;;;;;;;22.35;16.45;;;;;;;10.55;100.00;102487.91;5238160;28;20033;-70
2021/10/14 01:14:44;;;;;;;23.20;16.70;;;;;;;10.57;100.00;102483.38;5238987;28;20052;-70
2021/10/14 01:17:16;;;;;;;24.20;18.55;;;;;;;10.54;100.00;102487.06;5240324;28;20060;-70
2021/10/14 01:19:48;;;;;;;22.60;18.73;;;;;;;10.56;100.00;102482.56;5236643;28;20017;-70
2021/10/14 01:22:19;;;;;;;23.38;18.13;;;;;;;10.56;100.00;102490.41;5239329;28;20036;-70
2021/10/14 01:24:50;;;;;;;25.88;19.80;;;;;;;10.55;100.00;102483.50;5238897;28;20092;-70
2021/10/14 01:27:27;;;;;;;25.20;20.60;;;;;;;10.55;100.00;102475.63;5239141;28;20032;-70
2021/10/14 01:29:58;;;;;;;26.75;20.42;;;;;;;10.54;100.00;102483.59;5232899;28;20489;-71
2021/10/14 01:32:30;;;;;;;24.42;21.30;;;;;;;10.55;100.00;102483.50;5237242;28;20034;-70
2021/10/14 01:35:03;;;;;;;29.60;22.10;;;;;;;10.55;100.00;102478.25;5238045;28;20044;-70
2021/10/14 01:37:35;;;;;;;26.27;21.65;;;;;;;10.54;100.00;102475.72;5235691;28;20112;-70
2021/10/14 01:40:06;;;;;;;27.08;22.00;;;;;;;10.55;100.00;102477.41;5239062;28;20471;-70
2021/10/14 01:42:38;;;;;;;28.85;22.13;;;;;;;10.53;100.00;102474.91;5239081;28;20111;-70
2021/10/14 01:45:09;;;;;;;26.10;20.52;;;;;;;10.55;100.00;102470.38;5237863;28;20056;-70
2021/10/14 01:47:41;;;;;;;33.15;22.40;;;;;;;10.54;100.00;102470.50;5236110;28;20122;-70
2021/10/14 01:50:12;;;;;;;26.83;20.98;;;;;;;10.56;100.00;102469.44;5239087;28;20098;-70
2021/10/14 01:52:43;;;;;;;29.20;21.48;;;;;;;10.56;100.00;102472.06;5237786;28;20036;-70
2021/10/14 01:55:14;;;;;;;28.35;20.10;;;;;;;10.57;100.00;102470.28;5239646;28;20558;-69
2021/10/14 01:57:46;;;;;;;25.75;21.13;;;;;;;10.58;100.00;102472.84;5239160;28;20041;-70
2021/10/14 02:00:17;;;;;;;26.55;20.35;;;;;;;10.58;100.00;102472.00;5235455;28;20021;-70
2021/10/14 02:02:48;;;;;;;30.77;20.00;;;;;;;10.62;100.00;102468.25;5237332;28;20025;-69
2021/10/14 02:05:20;;;;;;;26.30;19.60;;;;;;;10.60;100.00;102457.00;5237503;28;20549;-70
2021/10/14 02:07:51;;;;;;;30.23;19.90;;;;;;;10.59;100.00;102463.19;5238969;28;20480;-70
2021/10/14 02:10:22;;;;;;;24.42;19.55;;;;;;;10.62;100.00;102463.03;5239049;28;20099;-69
2021/10/14 02:12:53;;;;;;;23.35;18.63;;;;;;;10.62;100.00;102460.41;5235153;28;20030;-70
2021/10/14 02:15:25;;;;;;;22.38;17.63;;;;;;;10.67;100.00;102456.56;5237266;28;20026;-69
2021/10/14 02:17:57;;;;;;;24.33;18.38;;;;;;;10.66;100.00;102464.53;5236133;28;20496;-70
2021/10/14 02:20:28;;;;;;;21.67;17.25;;;;;;;10.58;100.00;102451.03;5238659;28;20463;-70
2021/10/14 02:23:00;;;;;;;22.48;17.08;;;;;;;10.62;100.00;102460.41;5236632;28;20029;-70
2021/10/14 02:25:31;;;;;;;23.65;17.27;;;;;;;10.63;100.00;102448.97;5237643;28;20543;-70
2021/10/14 02:28:02;;;;;;;20.90;17.05;;;;;;;10.64;100.00;102451.50;5238018;28;20385;-70
2021/10/14 02:30:35;;;;;;;25.38;17.13;;;;;;;10.64;100.00;102456.72;5237154;28;20025;-69
2021/10/14 02:33:09;;;;;;;24.33;16.20;;;;;;;10.69;100.00;102446.00;5237341;28;20469;-70
2021/10/14 02:35:40;;;;;;;24.45;15.68;;;;;;;10.66;100.00;102451.41;5237438;28;20025;-70
2021/10/14 02:38:11;;;;;;;18.95;15.80;;;;;;;10.67;100.00;102451.31;5237276;28;20033;-70
2021/10/14 02:40:43;;;;;;;22.88;15.82;;;;;;;10.67;100.00;102451.31;5237297;28;20037;-70
2021/10/14 02:43:14;;;;;;;23.75;16.83;;;;;;;10.64;100.00;102450.66;5236959;28;20025;-70
2021/10/14 02:45:45;;;;;;;22.65;16.98;;;;;;;10.65;100.00;102444.50;5237785;28;20574;-70
2021/10/14 02:48:16;;;;;;;24.55;17.63;;;;;;;10.67;100.00;102447.84;5238561;28;20459;-71
2021/10/14 02:50:48;;;;;;;24.25;16.30;;;;;;;10.70;100.00;102445.88;5235472;28;20028;-70
2021/10/14 02:53:19;;;;;;;18.77;16.30;;;;;;;10.70;100.00;102445.06;5237610;28;20032;-70
2021/10/14 02:55:50;;;;;;;23.90;16.50;;;;;;;10.69;100.00;102441.59;5239404;28;20518;-71
2021/10/14 02:58:21;;;;;;;23.13;16.45;;;;;;;10.72;100.00;102437.97;5238921;28;20029;-70
2021/10/14 03:00:53;;;;;;;25.05;17.60;;;;;;;10.73;100.00;102436.19;5238354;28;20026;-70
2021/10/14 03:03:24;;;;;;;21.38;17.30;;;;;;;10.70;100.00;102440.66;5237596;28;20295;-70
2021/10/14 03:05:55;;;;;;;22.88;17.17;;;;;;;10.63;100.00;102433.25;5238912;28;20034;-70
2021/10/14 03:08:27;;;;;;;27.15;16.83;;;;;;;10.73;100.00;102439.63;5236633;28;20044;-70
2021/10/14 03:10:58;;;;;;;23.27;17.08;;;;;;;10.71;100.00;102441.50;5238164;28;20045;-71
2021/10/14 03:13:29;;;;;;;23.95;16.25;;;;;;;10.75;100.00;102442.16;5237013;28;20034;-70
2021/10/14 03:16:04;;;;;;;24.02;18.13;;;;;;;10.74;100.00;102440.47;5238360;28;20021;-70
2021/10/14 03:18:35;;;;;;;27.23;17.67;;;;;;;10.74;100.00;102446.56;5239481;28;20029;-70
2021/10/14 03:21:06;;;;;;;23.10;17.38;;;;;;;10.71;100.00;102436.25;5238395;28;20028;-70
2021/10/14 03:23:37;;;;;;;23.05;17.30;;;;;;;10.73;100.00;102441.41;5238113;28;20028;-70
2021/10/14 03:26:09;;;;;;;22.95;17.45;;;;;;;10.72;100.00;102443.19;5236647;28;20026;-70
2021/10/14 03:28:40;;;;;;;24.48;17.45;;;;;;;10.74;100.00;102443.09;5239875;28;20021;-70
2021/10/14 03:31:11;;;;;;;23.05;17.25;;;;;;;10.75;100.00;102440.38;5239799;28;20026;-70
2021/10/14 03:33:43;;;;;;;22.73;16.92;;;;;;;10.75;100.00;102439.53;5237005;28;20025;-70
2021/10/14 03:36:14;;;;;;;26.98;18.05;;;;;;;10.74;100.00;102438.69;5238244;28;20033;-70
2021/10/14 03:38:45;;;;;;;28.98;18.55;;;;;;;10.74;100.00;102437.84;5238039;28;20597;-70
2021/10/14 03:41:16;;;;;;;27.20;18.30;;;;;;;10.71;100.00;102441.50;5237608;28;20029;-70
2021/10/14 03:43:48;;;;;;;23.88;18.33;;;;;;;10.73;100.00;102436.19;5239701;28;20025;-70
2021/10/14 03:46:19;;;;;;;27.58;19.35;;;;;;;10.74;100.00;102433.44;5239405;28;20544;-70
2021/10/14 03:48:50;;;;;;;22.65;17.85;;;;;;;10.71;100.00;102425.75;5238303;28;21650;-70
2021/10/14 03:51:22;;;;;;;25.80;18.75;;;;;;;10.70;100.00;102426.69;5238059;28;20032;-70
2021/10/14 03:53:53;;;;;;;23.20;18.75;;;;;;;10.69;100.00;102427.66;5237957;28;20025;-70
2021/10/14 03:56:25;;;;;;;25.52;19.00;;;;;;;10.68;100.00;102431.19;5239806;28;20021;-70
2021/10/14 03:58:56;;;;;;;24.48;18.98;;;;;;;10.67;100.00;102440.81;5236785;28;20045;-70
2021/10/14 04:01:28;;;;;;;24.70;18.20;;;;;;;10.70;100.00;102434.56;5235798;28;20049;-70
2021/10/14 04:03:59;;;;;;;22.70;18.23;;;;;;;10.69;100.00;102431.09;5236598;28;20056;-70
2021/10/14 04:06:30;;;;;;;24.25;18.98;;;;;;;10.65;100.00;102423.53;5236512;28;20036;-69
2021/10/14 04:09:02;;;;;;;27.90;18.85;;;;;;;10.66;100.00;102430.44;5237839;28;20030;-70
2021/10/14 04:11:33;;;;;;;23.45;18.85;;;;;;;10.66;100.00;102433.06;5239262;28;20374;-70
2021/10/14 04:14:04;;;;;;;24.48;19.27;;;;;;;10.66;100.00;102423.41;5238386;28;20021;-70
2021/10/14 04:16:36;;;;;;;26.85;18.98;;;;;;;10.70;100.00;102438.03;5238336;28;20028;-70
2021/10/14 04:19:07;;;;;;;25.48;19.92;;;;;;;10.74;100.00;102437.84;5239523;28;20029;-70
2021/10/14 04:21:39;;;;;;;27.55;19.55;;;;;;;10.70;100.00;102434.56;5238735;28;20021;-69
2021/10/14 04:24:10;;;;;;;27.73;18.52;;;;;;;10.75;100.00;102439.53;5238607;28;20023;-70
2021/10/14 04:26:44;;;;;;;30.48;18.45;;;;;;;10.70;100.00;102419.69;5237920;28;20089;-70
2021/10/14 04:29:16;;;;;;;23.05;17.40;;;;;;;10.74;100.00;102427.38;5240199;28;20087;-70
2021/10/14 04:31:48;;;;;;;23.52;17.98;;;;;;;10.71;100.00;102426.59;5237646;28;20025;-70
2021/10/14 04:34:20;;;;;;;24.02;18.98;;;;;;;10.78;100.00;102427.09;5239467;28;20487;-70
2021/10/14 04:36:52;;;;;;;25.40;19.05;;;;;;;10.69;100.00;102407.53;5237915;28;20135;-69
2021/10/14 04:39:23;;;;;;;27.05;19.75;;;;;;;10.73;100.00;102416.03;5240185;28;20124;-69
2021/10/14 04:41:54;;;;;;;21.60;17.80;;;;;;;10.70;100.00;102416.22;5241092;28;20450;-70
2021/10/14 04:44:26;;;;;;;22.25;17.77;;;;;;;10.75;100.00;102424.63;5242987;28;20079;-69
2021/10/14 04:46:57;;;;;;;22.88;18.80;;;;;;;10.67;100.00;102413.78;5243370;28;20039;-70
2021/10/14 04:49:29;;;;;;;24.02;18.80;;;;;;;10.77;100.00;102424.56;5243232;28;20029;-70
2021/10/14 04:52:01;;;;;;;24.65;17.75;;;;;;;10.71;100.00;102410.03;5241409;28;20140;-70
2021/10/14 04:54:32;;;;;;;26.70;18.13;;;;;;;10.77;100.00;102409.69;5242618;28;20449;-70
2021/10/14 04:57:04;;;;;;;25.65;18.02;;;;;;;10.80;100.00;102413.91;5242596;28;20037;-70
2021/10/14 04:59:35;;;;;;;25.92;19.38;;;;;;;10.79;100.00;102414.81;5240410;28;20454;-70
2021/10/14 05:02:06;;;;;;;24.88;18.42;;;;;;;10.68;100.00;102402.34;5241500;28;20108;-70
2021/10/14 05:04:38;;;;;;;24.40;18.48;;;;;;;10.79;100.00;102418.28;5242184;28;20053;-70
2021/10/14 05:07:09;;;;;;;20.92;17.45;;;;;;;10.75;100.00;102403.66;5242677;28;20030;-70
2021/10/14 05:09:40;;;;;;;22.95;18.15;;;;;;;10.78;100.00;102413.97;5240453;28;20026;-70
2021/10/14 05:12:12;;;;;;;23.70;17.08;;;;;;;10.62;100.00;102390.47;5242553;28;20030;-70
2021/10/14 05:14:43;;;;;;;21.33;17.13;;;;;;;10.80;100.00;102419.97;5241544;28;21118;-70
2021/10/14 05:17:14;;;;;;;20.35;16.90;;;;;;;10.82;100.00;102417.25;5240376;28;20514;-68
2021/10/14 05:19:46;;;;;;;22.70;17.08;;;;;;;10.81;100.00;102413.78;5240255;28;20033;-69
2021/10/14 05:22:17;;;;;;;22.52;16.90;;;;;;;10.81;100.00;102411.16;5239329;28;20495;-68
2021/10/14 05:24:48;;;;;;;27.20;17.27;;;;;;;10.84;100.00;102413.63;5240361;28;20092;-69
2021/10/14 05:27:20;;;;;;;23.08;17.17;;;;;;;10.69;100.00;102393.56;5241849;28;20025;-69
2021/10/14 05:29:51;;;;;;;28.60;17.38;;;;;;;10.84;100.00;102413.63;5242123;28;20032;-69
2021/10/14 05:32:22;;;;;;;21.40;16.60;;;;;;;10.71;100.00;102387.28;5241430;28;20120;-69
2021/10/14 05:34:54;;;;;;;22.60;15.27;;;;;;;10.80;100.00;102395.56;5240253;28;20045;-69
2021/10/14 05:37:29;;;;;;;22.83;16.60;;;;;;;10.90;100.00;102415.84;5242557;28;20029;-69
2021/10/14 05:40:01;;;;;;;24.58;17.00;;;;;;;10.82;100.00;102412.84;5239765;28;20194;-69
2021/10/14 05:42:33;;;;;;;22.35;15.98;;;;;;;10.86;100.00;102411.72;5239405;28;20056;-69
2021/10/14 05:45:05;;;;;;;23.17;16.10;;;;;;;10.88;100.00;102412.50;5242188;28;20118;-69
2021/10/14 05:47:36;;;;;;;25.63;16.83;;;;;;;10.78;100.00;102406.09;5241482;28;20097;-68
2021/10/14 05:50:08;;;;;;;24.63;16.45;;;;;;;10.84;100.00;102399.66;5238257;28;20033;-72
2021/10/14 05:52:39;;;;;;;20.63;16.30;;;;;;;10.91;100.00;102407.06;5240049;28;20025;-69
2021/10/14 05:55:11;;;;;;;27.33;16.75;;;;;;;10.87;100.00;102421.31;5240421;28;20029;-72
2021/10/14 05:57:42;;;;;;;23.77;16.02;;;;;;;10.88;100.00;102417.72;5237956;28;20349;-71
2021/10/14 06:00:14;;;;;;;24.27;17.17;;;;;;;10.88;100.00;102415.09;5222263;28;20042;-68
2021/10/14 06:02:45;;;;;;;23.95;16.58;;;;;;;10.86;100.00;102406.47;5237451;28;20021;-69
2021/10/14 06:05:17;;;;;;;21.70;15.15;;;;;;;10.91;100.00;102411.44;5240430;28;20026;-68
2021/10/14 06:07:49;;;;;;;22.38;16.55;;;;;;;10.95;100.00;102420.84;5237156;28;20040;-68
2021/10/14 06:10:20;;;;;;;21.60;16.27;;;;;;;10.93;100.00;102413.03;5238261;28;20135;-69
2021/10/14 06:12:52;;;;;;;23.65;16.38;;;;;;;10.88;100.00;102402.00;5237995;28;20093;-69
2021/10/14 06:15:23;;;;;;;25.38;16.52;;;;;;;10.96;100.00;102420.72;5236693;28;20487;-70
2021/10/14 06:17:54;;;;;;;21.95;16.05;;;;;;;10.95;100.00;102410.34;5234519;28;20029;-69
2021/10/14 06:20:26;;;;;;;23.15;16.17;;;;;;;10.91;100.00;102407.06;5237249;28;20072;-71
2021/10/14 06:22:57;;;;;;;24.60;16.55;;;;;;;10.95;100.00;102407.72;5239607;28;20025;-72
2021/10/14 06:25:28;;;;;;;26.48;16.33;;;;;;;10.97;100.00;102405.81;5235335;28;20033;-69
2021/10/14 06:28:00;;;;;;;26.13;17.55;;;;;;;10.99;100.00;102409.22;5228560;28;20021;-69
2021/10/14 06:30:32;;;;;;;20.85;16.25;;;;;;;11.07;100.00;102408.75;5231700;28;20102;-69
2021/10/14 06:33:03;;;;;;;24.02;16.08;;;;;;;11.07;100.00;102406.94;5230928;28;20113;-71
2021/10/14 06:35:35;;;;;;;22.80;16.63;;;;;;;11.07;100.00;102406.94;5230444;28;20129;-69
2021/10/14 06:38:06;;;;;;;25.67;16.92;;;;;;;11.10;100.00;102403.28;5232167;28;20033;-69
2021/10/14 06:40:37;;;;;;;19.98;15.50;;;;;;;11.11;100.00;102402.38;5231610;28;20047;-69
2021/10/14 06:43:09;;;;;;;25.08;16.17;;;;;;;11.13;100.00;102403.94;5230778;28;20495;-69
2021/10/14 06:45:41;;;;;;;21.85;15.65;;;;;;;11.15;100.00;102403.84;5227674;28;20056;-69
2021/10/14 06:48:12;;;;;;;24.92;17.42;;;;;;;11.14;100.00;102396.94;5220828;28;20029;-69
2021/10/14 06:50:43;;;;;;;25.75;17.17;;;;;;;11.17;100.00;102404.59;5226863;28;20029;-69
2021/10/14 06:53:14;;;;;;;23.75;16.73;;;;;;;11.15;100.00;102395.97;5230754;28;20029;-69
2021/10/14 06:55:46;;;;;;;20.80;16.98;;;;;;;11.21;100.00;102403.44;5231766;28;20075;-69
2021/10/14 06:58:17;;;;;;;24.15;16.92;;;;;;;11.23;100.00;102398.97;5222656;28;20116;-68
2021/10/14 07:00:49;;;;;;;21.77;16.30;;;;;;;11.26;100.00;102396.16;5222657;28;20040;-69
2021/10/14 07:03:20;;;;;;;25.88;17.85;;;;;;;11.22;100.00;102394.66;5226430;28;20637;-69
2021/10/14 07:05:51;;;;;;;24.65;17.48;;;;;;;11.24;100.00;102394.56;5229375;28;20583;-69
2021/10/14 07:08:23;;;;;;;22.42;16.85;;;;;;;11.27;100.00;102399.63;5229996;28;20025;-69
2021/10/14 07:10:54;;;;;;;25.08;17.80;;;;;;;11.28;100.00;102399.50;5232786;28;20434;-69
2021/10/14 07:13:25;;;;;;;30.08;18.15;;;;;;;11.28;100.00;102399.50;5228634;28;20036;-69
2021/10/14 07:15:58;;;;;;;24.60;18.17;;;;;;;11.30;100.00;102402.91;5229553;28;20029;-69
2021/10/14 07:18:29;;;;;;;26.83;18.83;;;;;;;11.30;100.00;102397.66;5233527;28;20501;-68
2021/10/14 07:21:01;;;;;;;19.65;17.00;;;;;;;11.33;100.00;102394.84;5230631;28;20032;-69
2021/10/14 07:23:32;;;;;;;24.35;17.88;;;;;;;11.37;100.00;102405.97;5232067;28;20010;-69
2021/10/14 07:26:04;;;;;;;28.27;19.25;;;;;;;11.34;100.00;102393.88;5231845;28;20036;-69
2021/10/14 07:28:36;;;;;;;26.38;19.25;;;;;;;11.39;100.00;102402.28;5230435;28;20071;-69
2021/10/14 07:31:07;;;;;;;26.27;19.05;;;;;;;11.43;100.00;102408.19;5229803;28;20104;-69
2021/10/14 07:33:38;;;;;;;24.45;18.88;;;;;;;11.44;100.00;102410.75;5230423;28;20458;-69
2021/10/14 07:36:10;;;;;;;25.00;18.88;;;;;;;11.45;100.00;102407.16;5230383;28;20025;-69
2021/10/14 07:38:41;;;;;;;31.00;19.13;;;;;;;11.50;100.00;102411.28;5231439;28;20513;-69
2021/10/14 07:41:12;;;;;;;23.92;18.75;;;;;;;11.52;100.00;102417.28;5230032;28;20060;-69
2021/10/14 07:43:44;;;;;;;27.33;19.25;;;;;;;11.53;100.00;102411.09;5227347;28;20021;-69
2021/10/14 07:46:15;;;;;;;25.70;19.55;;;;;;;11.57;100.00;102415.19;5228898;28;20546;-69
2021/10/14 07:48:47;;;;;;;27.88;20.00;;;;;;;11.56;100.00;102417.00;5209140;28;20325;-68
2021/10/14 07:51:18;;;;;;;29.33;19.48;;;;;;;11.57;100.00;102415.19;5220875;28;20049;-69
2021/10/14 07:53:50;;;;;;;22.30;17.52;;;;;;;11.61;100.00;102419.31;5226355;28;20037;-69
2021/10/14 07:56:21;;;;;;;25.52;19.70;;;;;;;11.62;100.00;102411.31;5228049;28;20026;-69
2021/10/14 07:58:52;;;;;;;28.48;20.50;;;;;;;11.65;100.00;102419.00;5225836;28;20083;-69
2021/10/14 08:01:24;;;;;;;24.85;18.63;;;;;;;11.66;100.00;102419.84;5227524;28;20071;-69
2021/10/14 08:03:55;;;;;;;25.85;19.58;;;;;;;11.66;100.00;102411.97;5229554;28;20021;-69
2021/10/14 08:06:27;;;;;;;26.17;19.42;;;;;;;11.71;100.00;102422.22;5230603;28;20104;-69
2021/10/14 08:08:58;;;;;;;27.00;19.75;;;;;;;11.73;100.00;102425.56;5228011;28;20103;-69
2021/10/14 08:11:30;;;;;;;23.63;18.85;;;;;;;11.73;100.00;102417.69;5229296;28;20083;-69
2021/10/14 08:14:01;;;;;;;30.17;19.63;;;;;;;11.75;100.00;102416.66;5232749;28;20088;-69
2021/10/14 08:16:32;;;;;;;28.77;20.17;;;;;;;11.80;100.00;102408.47;5231674;28;20025;-69
2021/10/14 08:19:03;;;;;;;25.85;19.83;;;;;;;11.83;100.00;102406.53;5232336;28;20383;-69
2021/10/14 08:21:35;;;;;;;30.75;20.35;;;;;;;11.87;100.00;102405.38;5233960;28;20033;-69
2021/10/14 08:24:06;;;;;;;28.92;21.02;;;;;;;11.89;100.00;102407.88;5232003;28;20584;-69
2021/10/14 08:26:38;;;;;;;25.40;19.58;;;;;;;11.90;100.00;102413.06;5232040;28;20041;-69
2021/10/14 08:29:09;;;;;;;26.63;19.70;;;;;;;11.94;100.00;102421.59;5233809;28;20487;-69
2021/10/14 08:31:40;;;;;;;27.08;20.17;;;;;;;11.89;100.00;102411.38;5233281;28;20045;-69
2021/10/14 08:34:11;;;;;;;26.20;18.90;;;;;;;11.92;100.00;102407.69;5232453;28;20112;-68
2021/10/14 08:36:43;;;;;;;25.10;19.25;;;;;;;12.07;100.00;102414.56;5231677;28;20036;-69
2021/10/14 08:39:14;;;;;;;23.05;18.48;;;;;;;12.02;100.00;102407.94;5221614;28;20078;-71
2021/10/14 08:41:46;;;;;;;27.95;19.48;;;;;;;12.05;100.00;102405.13;5228371;28;20029;-71
2021/10/14 08:44:26;;;;;;;26.27;19.07;;;;;;;12.08;100.00;102405.72;5230822;28;20041;-69
2021/10/14 08:46:58;;;;;;;27.25;19.33;;;;;;;12.03;100.00;102407.00;5230341;28;20697;-69
2021/10/14 08:49:30;;;;;;;23.88;19.13;;;;;;;12.07;100.00;102414.56;5225494;28;20128;-69
2021/10/14 08:52:02;;;;;;;27.13;21.08;;;;;;;12.10;100.00;102411.75;5225448;28;20498;-68
2021/10/14 08:54:33;;;;;;;26.02;19.65;;;;;;;12.11;100.00;102412.56;5225526;28;20038;-69
2021/10/14 08:57:04;;;;;;;24.55;18.23;;;;;;;12.12;100.00;102415.13;5233328;28;20101;-68
2021/10/14 08:59:37;;;;;;;25.92;19.95;;;;;;;12.11;100.00;102409.94;5231335;28;20013;-71
2021/10/14 09:02:08;;;;;;;26.85;20.23;;;;;;;12.20;100.00;102409.34;5231987;28;20889;-71
2021/10/14 09:04:39;;;;;;;26.63;21.13;;;;;;;12.20;100.00;102419.00;5232425;28;20013;-69
2021/10/14 09:07:15;;;;;;;26.42;20.02;;;;;;;12.24;100.00;102416.09;5230673;28;20491;-68
2021/10/14 09:09:48;;;;;;;26.77;20.38;;;;;;;12.17;100.00;102410.41;5229965;28;20049;-71
2021/10/14 09:12:22;;;;;;;24.67;18.92;;;;;;;12.23;100.00;102417.00;5232476;28;20091;-69
2021/10/14 09:14:55;;;;;;;26.95;20.80;;;;;;;12.28;100.00;102420.19;5233655;28;20582;-69
2021/10/14 09:17:36;;;;;;;;;;;;;;;12.67;100.00;102413.19;5227203;28;20022;-69
2021/10/14 09:20:28;;;;;;;24.13;19.50;;;;;;;12.53;100.00;102411.47;5220326;28;20457;-69
2021/10/14 09:23:07;;;;;;;27.25;20.50;;;;;;;12.48;100.00;102410.13;5229756;28;20085;-69
2021/10/14 09:25:51;;;;;;;29.65;20.52;;;;;;;12.54;100.00;102410.56;5228351;28;20025;-71
2021/10/14 09:28:28;;;;;;;28.63;20.42;;;;;;;12.52;100.00;102404.53;5229302;28;20106;-69
2021/10/14 09:31:02;;;;;;;28.52;22.02;;;;;;;12.54;100.00;102415.81;5228760;28;20103;-69
2021/10/14 09:33:41;;;;;;;26.70;19.90;;;;;;;12.57;100.00;102407.69;5229303;28;20025;-69
2021/10/14 09:36:23;;;;;;;25.38;19.63;;;;;;;12.62;100.00;102404.78;5226832;28;20450;-69
2021/10/14 09:39:03;;;;;;;27.48;20.20;;;;;;;12.68;100.00;102400.88;5230918;28;20025;-69
2021/10/14 09:41:40;;;;;;;29.73;20.55;;;;;;;12.71;100.00;102404.13;5230699;28;20045;-71
2021/10/14 09:44:17;;;;;;;28.30;21.23;;;;;;;12.62;100.00;102387.19;5233167;28;20025;-69
2021/10/14 09:46:51;;;;;;;31.90;20.15;;;;;;;12.72;100.00;102384.75;5229216;28;20177;-70
2021/10/14 09:49:28;;;;;;;28.70;20.00;;;;;;;12.73;100.00;102396.97;5231813;28;20448;-69
2021/10/14 09:52:01;;;;;;;27.90;20.15;;;;;;;12.75;100.00;102378.47;5230529;28;20037;-69
2021/10/14 09:54:32;;;;;;;25.75;20.73;;;;;;;12.77;100.00;102371.31;5230451;28;20033;-69
2021/10/14 09:57:03;;;;;;;26.38;20.45;;;;;;;12.82;100.00;102375.28;5228801;28;20239;-70
2021/10/14 09:59:35;;;;;;;31.83;21.33;;;;;;;12.91;100.00;102372.00;5229780;28;20049;-69
2021/10/14 10:02:06;;;;;;;28.35;20.98;;;;;;;12.96;100.00;102370.88;5225688;28;20048;-70
2021/10/14 10:04:38;;;;;;;25.13;19.08;;;;;;;13.04;100.00;102364.09;5229652;28;20095;-70
2021/10/14 10:07:10;;;;;;;27.17;19.98;;;;;;;13.10;100.00;102363.66;5229385;28;20017;-69
2021/10/14 10:09:42;;;;;;;25.70;20.92;;;;;;;13.14;100.00;102364.28;5229277;28;20029;-70
2021/10/14 10:12:14;;;;;;;25.60;20.67;;;;;;;13.22;100.00;102371.63;5226739;28;20091;-69
2021/10/14 10:14:50;;;;;;;28.92;20.38;;;;;;;13.30;100.00;102367.53;5225960;28;20022;-69
2021/10/14 10:17:42;;;;;;;27.55;20.08;;;;;;;13.48;100.00;102373.25;5227992;28;20037;-69
2021/10/14 10:20:37;;;;;;;28.45;21.70;;;;;;;13.60;100.00;102366.28;5226590;28;20476;-69
2021/10/14 10:23:09;;;;;;;26.35;20.27;;;;;;;13.56;100.00;102378.81;5228568;28;20018;-69
2021/10/14 10:25:40;;;;;;;23.30;18.42;;;;;;;13.66;100.00;102371.06;5231618;28;20064;-70
2021/10/14 10:28:40;;;;;;;25.08;20.63;;;;;;;13.85;100.00;102373.19;5230708;28;20013;-70
2021/10/14 10:31:11;;;;;;;28.20;19.95;;;;;;;13.76;100.00;102371.25;5230738;28;20022;-70
2021/10/14 10:33:57;;;;;;;26.52;19.92;;;;;;;13.88;100.00;102363.25;5227460;28;20070;-70
2021/10/14 10:36:51;;;;;;;28.83;20.92;;;;;;;13.95;100.00;102366.28;5226378;28;20087;-70
2021/10/14 10:39:48;;;;;;;25.23;20.35;;;;;;;14.01;100.00;102357.91;5229310;28;20029;-70
2021/10/14 10:42:22;;;;;;;25.75;19.45;;;;;;;13.91;100.00;102364.84;5232246;28;20021;-70
2021/10/14 10:44:54;;;;;;;23.23;18.60;;;;;;;13.91;100.00;102374.53;5221826;28;20029;-69
2021/10/14 10:47:46;;;;;;;25.98;19.15;;;;;;;14.07;100.00;102368.00;5219263;28;20480;-70
2021/10/14 10:50:24;;;;;;;27.58;19.17;;;;;;;14.05;100.00;102362.00;5226289;28;20037;-70
2021/10/14 10:53:06;;;;;;;27.70;18.73;;;;;;;14.18;100.00;102355.81;5226817;28;20025;-70
2021/10/14 10:55:44;;;;;;;22.80;18.53;;;;;;;14.14;100.00;102359.63;5228326;28;20033;-70
2021/10/14 10:58:48;;;;;;;23.25;19.02;;;;;;;14.31;100.00;102354.72;5228922;28;20100;-70
2021/10/14 11:01:19;;;;;;;;;;;;;;;14.63;100.00;102354.09;5228274;28;20668;-70
2021/10/14 11:04:00;;;;;;;21.42;17.20;;;;;;;14.45;100.00;102345.78;5223629;28;20004;-70
2021/10/14 11:06:33;;;;;;;24.38;18.00;;;;;;;14.40;100.00;102347.09;5224990;28;20029;-70
2021/10/14 11:09:06;;;;;;;;;;;;;;;14.72;100.00;102334.88;5224058;28;20028;-70
2021/10/14 11:11:38;;;;;;;23.77;17.58;;;;;;;14.57;100.00;102339.56;5225177;28;20548;-70
2021/10/14 11:14:10;;;;;;;21.00;16.60;;;;;;;14.64;100.00;102342.56;5230859;28;20025;-70
2021/10/14 11:16:41;;;;;;;23.33;17.90;;;;;;;14.68;100.00;102338.72;5223708;28;20021;-69
2021/10/14 11:19:17;;;;;;;22.75;17.27;;;;;;;14.76;100.00;102333.69;5229118;28;20417;-70
2021/10/14 11:21:49;;;;;;;21.35;18.05;;;;;;;14.78;100.00;102336.22;5228835;28;20037;-70
2021/10/14 11:24:21;;;;;;;20.67;17.15;;;;;;;14.77;100.00;102334.53;5229098;28;20026;-70
2021/10/14 11:26:53;;;;;;;20.40;17.33;;;;;;;14.86;100.00;102319.78;5230893;28;20450;-70